Time;durP1;ratioP1;P1;durP2;ratioP2;P2;SDS_P1;SDS_P2;PMS_P1;PMS_P2;Temp;Humidity;BMP_temperature;BMP_pressure;BME280_temperature;BME280_humidity;BME280_pressure;Samples;Min_cycle;Max_cycle;Signal;HPM_P1;HPM_P2
2023/12/19 00:01:50;;;;;;;10.88;7.63;;;;;;;5.31;52.09;102307.03;4927329;29;20048;-85
2023/12/19 00:04:18;;;;;;;11.35;7.97;;;;;;;5.26;51.78;102306.38;4913712;29;20107;-86
2023/12/19 00:06:48;;;;;;;11.75;7.60;;;;;;;5.29;51.84;102312.53;4902909;29;20134;-86
2023/12/19 00:09:16;;;;;;;11.95;8.00;;;;;;;5.25;51.92;102307.31;4911664;29;20071;-86
2023/12/19 00:11:44;;;;;;;11.60;8.55;;;;;;;5.24;51.94;102313.69;4915258;29;20048;-85
2023/12/19 00:14:12;;;;;;;12.45;8.45;;;;;;;5.23;51.69;102301.94;4915509;29;20047;-85
2023/12/19 00:16:40;;;;;;;13.13;8.70;;;;;;;5.21;51.93;102281.25;4916387;29;20067;-86
2023/12/19 00:19:09;;;;;;;13.48;8.38;;;;;;;5.21;51.88;102282.13;4901791;29;20051;-86
2023/12/19 00:21:37;;;;;;;11.70;8.68;;;;;;;5.20;51.92;102276.78;4926315;29;20530;-85
2023/12/19 00:24:07;;;;;;;11.13;7.90;;;;;;;5.20;52.37;102277.66;4934942;29;20050;-83
2023/12/19 00:26:35;;;;;;;13.10;8.40;;;;;;;5.18;52.28;102279.56;4915763;29;20126;-85
2023/12/19 00:29:04;;;;;;;11.52;8.15;;;;;;;5.17;52.01;102291.34;4905958;29;20051;-85
2023/12/19 00:31:33;;;;;;;11.55;8.55;;;;;;;5.13;52.24;102273.38;4911348;29;20096;-86
2023/12/19 00:34:01;;;;;;;12.60;8.25;;;;;;;5.15;52.05;102267.91;4926654;29;20134;-86
2023/12/19 00:36:29;;;;;;;13.73;8.48;;;;;;;5.14;52.18;102271.56;4922605;29;23014;-85
2023/12/19 00:38:58;;;;;;;13.32;8.30;;;;;;;5.12;52.20;102278.91;4919198;29;20048;-85
2023/12/19 00:41:27;;;;;;;12.82;8.32;;;;;;;5.13;52.50;102286.94;4924947;29;20426;-86
2023/12/19 00:43:56;;;;;;;11.80;7.97;;;;;;;5.10;52.26;102270.81;4919526;29;20522;-85
2023/12/19 00:46:24;;;;;;;13.18;9.05;;;;;;;5.11;52.20;102277.13;4919223;29;20409;-84
2023/12/19 00:48:52;;;;;;;12.88;8.10;;;;;;;5.10;52.21;102278.97;4912986;29;20056;-84
2023/12/19 00:51:22;;;;;;;12.32;8.13;;;;;;;5.08;52.35;102260.97;4937193;29;20051;-85
2023/12/19 00:53:53;;;;;;;11.27;7.70;;;;;;;5.09;52.74;102266.34;4934586;29;20175;-85
2023/12/19 00:56:22;;;;;;;11.35;7.25;;;;;;;5.04;52.41;102259.34;4912130;29;20095;-84
2023/12/19 00:58:54;;;;;;;12.63;8.20;;;;;;;5.06;52.54;102260.16;4920455;29;20426;-84
2023/12/19 01:01:23;;;;;;;12.23;7.90;;;;;;;5.02;52.50;102248.56;4925455;29;20078;-84
2023/12/19 01:03:52;;;;;;;10.85;7.65;;;;;;;5.04;52.47;102262.06;4914954;29;20518;-85
2023/12/19 01:06:20;;;;;;;11.75;7.57;;;;;;;5.01;52.73;102268.50;4918503;29;20056;-85
2023/12/19 01:08:49;;;;;;;9.85;7.68;;;;;;;4.99;53.02;102272.22;4920832;29;20453;-85
2023/12/19 01:11:17;;;;;;;10.20;7.32;;;;;;;5.00;52.98;102269.44;4926672;29;20087;-85
2023/12/19 01:13:45;;;;;;;12.77;8.18;;;;;;;5.01;52.79;102260.34;4919870;29;20047;-85
2023/12/19 01:16:15;;;;;;;10.82;7.50;;;;;;;5.01;53.21;102254.03;4924418;29;20040;-85
2023/12/19 01:18:44;;;;;;;10.55;7.68;;;;;;;5.02;53.15;102250.38;4916233;29;20055;-85
2023/12/19 01:21:12;;;;;;;11.23;7.53;;;;;;;5.00;52.92;102247.72;4912323;29;20103;-85
2023/12/19 01:23:41;;;;;;;11.70;8.32;;;;;;;5.01;52.94;102244.06;4933527;29;20075;-84
2023/12/19 01:26:09;;;;;;;10.85;7.93;;;;;;;5.00;52.87;102234.16;4960894;29;20130;-85
2023/12/19 01:28:47;;;;;;;12.27;7.82;;;;;;;5.00;53.12;102223.31;4936344;29;20043;-85
2023/12/19 01:31:17;;;;;;;11.65;8.02;;;;;;;4.98;52.96;102227.03;4909528;29;20135;-87
2023/12/19 01:33:45;;;;;;;10.48;7.30;;;;;;;4.96;52.83;102227.13;4930249;29;20060;-86
2023/12/19 01:36:13;;;;;;;10.05;7.10;;;;;;;4.97;53.02;102209.88;4917517;29;20051;-85
2023/12/19 01:38:41;;;;;;;12.18;7.88;;;;;;;4.95;52.96;102214.50;4932272;29;20043;-85
2023/12/19 01:41:10;;;;;;;11.25;7.78;;;;;;;4.95;52.58;102214.50;4918652;29;20044;-86
2023/12/19 01:43:38;;;;;;;10.45;7.32;;;;;;;4.93;52.90;102213.66;4905474;29;20044;-85
2023/12/19 01:46:13;;;;;;;9.93;7.50;;;;;;;4.95;53.05;102219.91;4929549;29;20035;-87
2023/12/19 01:48:43;;;;;;;11.52;7.57;;;;;;;4.91;53.01;102211.00;4918022;29;20119;-84
2023/12/19 01:51:12;;;;;;;9.43;7.03;;;;;;;4.89;53.00;102210.19;4918929;29;20120;-86
2023/12/19 01:53:44;;;;;;;9.98;7.30;;;;;;;4.89;52.74;102203.88;4904596;29;20087;-86
2023/12/19 01:56:16;;;;;;;12.48;8.55;;;;;;;4.86;52.82;102212.16;4927849;29;20063;-84
2023/12/19 01:58:44;;;;;;;10.90;6.95;;;;;;;4.82;53.05;102207.81;4912935;29;20089;-85
2023/12/19 02:01:13;;;;;;;10.85;7.60;;;;;;;4.82;52.72;102215.94;4910768;29;20074;-86
2023/12/19 02:03:44;;;;;;;11.35;7.68;;;;;;;4.83;52.82;102220.44;4907886;29;20044;-86
2023/12/19 02:06:13;;;;;;;12.27;7.65;;;;;;;4.82;52.90;102211.41;4910441;29;20079;-85
2023/12/19 02:08:41;;;;;;;10.77;7.00;;;;;;;4.77;53.09;102199.88;4915170;29;20104;-87
2023/12/19 02:11:10;;;;;;;10.77;7.28;;;;;;;4.80;53.01;102205.16;4905047;29;20044;-87
2023/12/19 02:13:39;;;;;;;11.85;7.40;;;;;;;4.78;53.03;102185.38;4928595;29;20119;-85
2023/12/19 02:16:08;;;;;;;12.18;8.15;;;;;;;4.80;52.78;102196.16;4928410;29;20039;-85
2023/12/19 02:18:36;;;;;;;11.07;7.85;;;;;;;4.78;52.97;102193.50;4921531;29;20454;-86
2023/12/19 02:21:06;;;;;;;11.40;7.80;;;;;;;4.79;52.94;102194.41;4927956;29;20107;-87
2023/12/19 02:23:36;;;;;;;11.57;7.55;;;;;;;4.78;52.78;102184.50;4939619;29;20054;-88
2023/12/19 02:26:09;;;;;;;11.13;7.45;;;;;;;4.77;52.74;102186.31;4954013;29;20036;-86
2023/12/19 02:28:37;;;;;;;9.88;7.43;;;;;;;4.77;52.93;102178.19;4922251;29;20044;-85
2023/12/19 02:31:06;;;;;;;13.02;8.30;;;;;;;4.76;53.19;102176.41;4921140;29;20048;-85
2023/12/19 02:33:34;;;;;;;10.77;7.00;;;;;;;4.75;53.19;102165.63;4908849;29;20083;-86
2023/12/19 02:36:02;;;;;;;11.73;7.07;;;;;;;4.76;53.01;102165.56;4922046;29;20054;-86
2023/12/19 02:38:30;;;;;;;11.73;8.18;;;;;;;4.75;52.90;102152.06;4930901;29;20063;-87
2023/12/19 02:41:00;;;;;;;10.90;7.20;;;;;;;4.78;52.97;102151.94;4904661;29;20586;-86
2023/12/19 02:43:28;;;;;;;11.23;7.53;;;;;;;4.75;52.89;102150.22;4918814;29;20102;-86
2023/12/19 02:45:56;;;;;;;11.18;7.45;;;;;;;4.76;53.18;102153.84;4913387;29;20422;-86
2023/12/19 02:48:24;;;;;;;10.18;6.97;;;;;;;4.75;52.67;102138.50;4915195;29;20040;-87
2023/12/19 02:50:53;;;;;;;12.05;7.50;;;;;;;4.76;53.03;102132.13;4915122;29;20047;-86
2023/12/19 02:53:21;;;;;;;12.20;7.75;;;;;;;4.76;53.14;102124.00;4917195;29;20060;-85
2023/12/19 02:55:49;;;;;;;12.57;7.43;;;;;;;4.76;53.28;102124.88;4925843;29;20071;-86
2023/12/19 02:58:19;;;;;;;11.00;8.07;;;;;;;4.79;53.15;102115.75;4931651;28;20472;-86
2023/12/19 03:00:47;;;;;;;11.98;8.00;;;;;;;4.76;53.25;102103.19;4916662;29;20056;-85
2023/12/19 03:03:15;;;;;;;11.73;8.38;;;;;;;4.77;53.09;102102.25;4925182;29;20080;-86
2023/12/19 03:05:43;;;;;;;11.55;7.28;;;;;;;4.75;53.18;102106.84;4916942;29;20078;-85
2023/12/19 03:08:11;;;;;;;11.98;7.68;;;;;;;4.75;53.01;102101.41;4923698;29;20043;-83
2023/12/19 03:10:39;;;;;;;10.82;6.68;;;;;;;4.79;53.01;102104.88;4939429;29;20055;-84
2023/12/19 03:13:07;;;;;;;10.88;7.45;;;;;;;4.76;52.76;102102.31;4930692;29;20043;-85
2023/12/19 03:15:37;;;;;;;10.65;7.20;;;;;;;4.79;53.05;102107.59;4942850;29;20044;-86
2023/12/19 03:18:05;;;;;;;10.68;7.28;;;;;;;4.75;53.32;102089.69;4917516;29;20044;-86
2023/12/19 03:20:33;;;;;;;11.18;6.88;;;;;;;4.79;52.78;102091.34;4912129;29;20060;-84
2023/12/19 03:23:01;;;;;;;10.98;7.68;;;;;;;4.78;53.43;102089.56;4934728;29;20052;-85
2023/12/19 03:25:29;;;;;;;9.20;6.68;;;;;;;4.77;53.08;102071.53;4913902;29;20135;-83
2023/12/19 03:27:57;;;;;;;11.80;7.22;;;;;;;4.78;53.12;102076.00;4899976;29;20040;-85
2023/12/19 03:30:25;;;;;;;9.15;6.60;;;;;;;4.80;53.52;102068.69;4914637;29;20063;-85
2023/12/19 03:32:55;;;;;;;10.07;6.65;;;;;;;4.78;52.96;102060.63;4914905;29;20478;-85
2023/12/19 03:35:23;;;;;;;11.13;7.35;;;;;;;4.81;52.87;102062.28;4906302;29;20048;-84
2023/12/19 03:37:51;;;;;;;11.13;7.20;;;;;;;4.81;53.29;102063.16;4913072;29;20052;-85
2023/12/19 03:40:20;;;;;;;10.65;7.07;;;;;;;4.82;53.34;102056.78;4911301;29;20064;-85
2023/12/19 03:42:48;;;;;;;10.80;7.10;;;;;;;4.80;53.40;102066.81;4916882;29;20131;-85
2023/12/19 03:45:16;;;;;;;11.00;6.53;;;;;;;4.83;53.24;102063.09;4915590;29;20043;-85
2023/12/19 03:47:44;;;;;;;10.57;7.13;;;;;;;4.83;53.22;102069.41;4918913;29;20055;-85
2023/12/19 03:50:13;;;;;;;12.52;7.47;;;;;;;4.85;53.56;102072.94;4912542;29;20045;-85
2023/12/19 03:52:41;;;;;;;10.75;7.18;;;;;;;4.86;53.43;102069.28;4908544;29;20070;-84
2023/12/19 03:55:10;;;;;;;11.35;7.25;;;;;;;4.88;53.32;102071.94;4911697;29;20520;-85
2023/12/19 03:57:38;;;;;;;9.15;6.70;;;;;;;4.85;53.59;102062.09;4917005;29;20057;-85
2023/12/19 04:00:08;;;;;;;11.18;7.03;;;;;;;4.89;53.58;102061.00;4919339;29;20104;-85
2023/12/19 04:02:37;;;;;;;10.70;6.78;;;;;;;4.92;53.31;102074.44;4905976;29;20056;-86
2023/12/19 04:05:05;;;;;;;12.18;7.07;;;;;;;4.93;53.45;102061.75;4904138;29;20036;-85
2023/12/19 04:07:34;;;;;;;11.10;7.00;;;;;;;4.93;53.57;102057.22;4908242;29;20051;-85
2023/12/19 04:10:02;;;;;;;10.15;6.90;;;;;;;4.96;53.65;102052.59;4906307;29;20036;-85
2023/12/19 04:12:31;;;;;;;10.32;6.85;;;;;;;4.95;53.43;102048.13;4924571;29;20043;-85
2023/12/19 04:14:59;;;;;;;10.80;6.93;;;;;;;4.96;53.39;102049.88;4913931;29;20573;-84
2023/12/19 04:17:27;;;;;;;10.63;6.68;;;;;;;4.95;53.55;102034.56;4915879;29;20063;-84
2023/12/19 04:19:55;;;;;;;10.30;6.93;;;;;;;4.93;53.30;102030.09;4912127;29;20133;-85
2023/12/19 04:22:23;;;;;;;10.48;6.82;;;;;;;4.93;53.30;102024.66;4916126;29;20040;-84
2023/12/19 04:24:53;;;;;;;10.95;6.93;;;;;;;4.97;53.15;102027.22;4911918;29;20266;-84
2023/12/19 04:27:22;;;;;;;10.23;6.63;;;;;;;4.95;53.43;102012.84;4904714;29;20060;-85
2023/12/19 04:29:54;;;;;;;8.52;6.07;;;;;;;4.94;53.59;102003.84;4910671;29;20139;-84
2023/12/19 04:32:23;;;;;;;;;;;;;;;4.68;54.35;101996.00;4911487;29;20052;-84
2023/12/19 04:34:52;;;;;;;8.52;5.63;;;;;;;4.89;53.56;102004.03;4922545;29;20431;-85
2023/12/19 04:37:20;;;;;;;9.73;6.40;;;;;;;4.91;53.57;101987.69;4921642;29;20043;-84
2023/12/19 04:39:48;;;;;;;9.45;6.15;;;;;;;4.91;53.49;101984.97;4911431;29;20036;-86
2023/12/19 04:42:18;;;;;;;8.73;5.60;;;;;;;4.92;53.66;101989.44;4915632;29;20052;-85
2023/12/19 04:44:47;;;;;;;9.60;6.28;;;;;;;4.89;53.79;101985.03;4917983;29;20116;-84
2023/12/19 04:47:16;;;;;;;7.80;5.47;;;;;;;4.90;53.61;101983.22;4923331;29;20454;-84
2023/12/19 04:49:44;;;;;;;9.23;6.28;;;;;;;4.89;53.68;101976.91;4928213;29;20039;-83
2023/12/19 04:52:12;;;;;;;9.70;6.10;;;;;;;4.89;53.83;101976.91;4944207;29;20054;-83
2023/12/19 04:54:40;;;;;;;9.23;6.35;;;;;;;4.88;53.68;101975.13;4935199;29;20048;-83
2023/12/19 04:57:08;;;;;;;10.15;6.10;;;;;;;4.88;53.97;101988.69;4922416;29;20103;-84
2023/12/19 04:59:38;;;;;;;10.85;6.03;;;;;;;4.87;54.06;101976.13;4921140;29;20465;-84
2023/12/19 05:02:06;;;;;;;8.73;5.43;;;;;;;4.89;53.85;101978.72;4921888;29;20048;-83
2023/12/19 05:04:34;;;;;;;8.20;5.32;;;;;;;4.87;53.97;101973.41;4932734;29;20047;-83
2023/12/19 05:07:02;;;;;;;6.70;4.80;;;;;;;4.90;54.03;101972.34;4934273;29;20508;-83
2023/12/19 05:09:30;;;;;;;7.47;5.28;;;;;;;4.88;54.00;101960.72;4926415;29;20073;-83
2023/12/19 05:11:59;;;;;;;7.85;5.28;;;;;;;4.88;54.00;101960.72;4920138;29;20051;-86
2023/12/19 05:14:27;;;;;;;7.90;5.57;;;;;;;4.88;54.02;101949.88;4923908;29;20063;-85
2023/12/19 05:16:56;;;;;;;8.02;5.20;;;;;;;4.91;54.28;101961.44;4926841;29;20135;-84
2023/12/19 05:19:24;;;;;;;7.47;5.20;;;;;;;4.87;53.97;101949.00;4925785;29;20048;-86
2023/12/19 05:21:52;;;;;;;9.20;5.38;;;;;;;4.88;54.00;101939.88;4909663;29;20044;-83
2023/12/19 05:24:20;;;;;;;7.05;5.22;;;;;;;4.89;54.13;101940.75;4923557;29;20375;-84
2023/12/19 05:26:48;;;;;;;8.32;5.05;;;;;;;4.87;54.16;101931.84;4909563;29;20084;-85
2023/12/19 05:29:16;;;;;;;6.55;4.50;;;;;;;4.90;54.19;101937.09;4905654;29;20127;-86
2023/12/19 05:31:44;;;;;;;6.75;4.68;;;;;;;4.88;54.01;101925.47;4916340;29;20051;-84
2023/12/19 05:34:13;;;;;;;7.25;4.65;;;;;;;4.87;54.28;101927.28;4920607;29;20055;-84
2023/12/19 05:36:46;;;;;;;6.80;4.43;;;;;;;4.88;54.33;101912.75;4916256;29;20040;-86
2023/12/19 05:39:17;;;;;;;8.35;4.72;;;;;;;4.88;54.50;101915.47;4917157;29;20054;-85
2023/12/19 05:41:45;;;;;;;7.45;4.60;;;;;;;4.88;54.14;101907.31;4921940;29;20048;-84
2023/12/19 05:44:13;;;;;;;7.43;4.30;;;;;;;4.88;54.25;101904.63;4922472;29;20332;-84
2023/12/19 05:46:41;;;;;;;7.88;5.20;;;;;;;4.88;54.56;101903.75;4923442;29;20044;-84
2023/12/19 05:49:09;;;;;;;6.55;4.53;;;;;;;4.89;54.50;101906.38;4919640;29;20525;-84
2023/12/19 05:51:40;;;;;;;9.10;4.55;;;;;;;4.90;54.89;101890.97;4925632;29;20040;-84
2023/12/19 05:54:10;;;;;;;7.18;4.65;;;;;;;4.92;54.64;101886.38;4929342;29;20044;-84
2023/12/19 05:56:42;;;;;;;6.57;4.55;;;;;;;4.93;54.98;101885.44;4934736;29;20072;-84
2023/12/19 05:59:10;;;;;;;6.88;4.25;;;;;;;4.91;54.78;101887.31;4923290;29;20169;-84
2023/12/19 06:01:42;;;;;;;7.38;4.63;;;;;;;4.93;55.09;101877.28;4920515;29;20142;-83
2023/12/19 06:04:11;;;;;;;7.53;4.63;;;;;;;4.91;54.95;101873.75;4939264;29;20054;-83
2023/12/19 06:06:44;;;;;;;7.78;4.57;;;;;;;4.97;54.74;101878.88;4931412;29;20048;-84
2023/12/19 06:09:12;;;;;;;6.70;4.57;;;;;;;4.96;54.99;101890.72;4938632;29;20063;-84
2023/12/19 06:11:41;;;;;;;6.85;4.53;;;;;;;4.96;54.88;101888.00;4934411;29;20128;-84
2023/12/19 06:14:09;;;;;;;6.53;4.50;;;;;;;4.98;54.76;101890.63;4923666;29;20048;-85
2023/12/19 06:16:39;;;;;;;7.22;4.80;;;;;;;4.99;55.04;101893.25;4922740;29;20458;-84
2023/12/19 06:19:08;;;;;;;7.10;4.82;;;;;;;5.01;55.15;101898.63;4929389;29;20046;-85
2023/12/19 06:21:36;;;;;;;6.30;4.10;;;;;;;4.99;55.18;101895.97;4907616;29;20066;-85
2023/12/19 06:24:06;;;;;;;7.38;4.88;;;;;;;5.01;54.94;101904.03;4913726;29;20052;-85
2023/12/19 06:26:34;;;;;;;6.85;4.88;;;;;;;5.02;55.21;101916.66;4917926;29;20096;-86
2023/12/19 06:29:03;;;;;;;6.70;4.22;;;;;;;5.03;55.13;101916.59;4929880;29;20043;-86
2023/12/19 06:31:31;;;;;;;6.72;4.57;;;;;;;5.03;54.92;101911.16;4913362;29;20442;-84
2023/12/19 06:34:00;;;;;;;7.40;4.70;;;;;;;5.04;55.15;101914.75;4911976;29;20047;-85
2023/12/19 06:36:29;;;;;;;8.00;4.70;;;;;;;5.06;55.18;101907.41;4934394;29;20035;-86
2023/12/19 06:38:58;;;;;;;7.22;4.72;;;;;;;5.07;55.20;101907.34;4913753;29;20477;-85
2023/12/19 06:41:29;;;;;;;7.25;4.47;;;;;;;5.08;55.16;101905.50;4932120;29;20040;-86
2023/12/19 06:43:58;;;;;;;7.10;4.45;;;;;;;5.09;55.18;101909.97;4914066;29;20061;-85
2023/12/19 06:46:26;;;;;;;6.63;4.72;;;;;;;5.11;55.09;101908.09;4925702;29;20048;-84
2023/12/19 06:48:54;;;;;;;7.28;4.32;;;;;;;5.10;55.18;101895.47;4934113;29;20043;-84
2023/12/19 06:51:25;;;;;;;7.50;4.38;;;;;;;5.14;55.45;101888.91;4931660;29;20103;-85
2023/12/19 06:53:55;;;;;;;7.30;3.75;;;;;;;5.13;55.15;101879.91;4929083;29;20054;-85
2023/12/19 06:56:26;;;;;;;8.82;4.45;;;;;;;5.13;55.19;101873.63;4922799;29;20040;-84
2023/12/19 06:58:56;;;;;;;10.52;5.00;;;;;;;5.16;55.29;101873.44;4925186;29;20059;-85
2023/12/19 07:01:25;;;;;;;7.88;4.28;;;;;;;5.16;55.39;101863.47;4917105;29;20071;-84
2023/12/19 07:03:53;;;;;;;7.90;4.45;;;;;;;5.15;55.49;101859.00;4910916;29;20059;-85
2023/12/19 07:06:21;;;;;;;7.38;4.65;;;;;;;5.15;55.42;101858.13;4913433;29;20048;-85
2023/12/19 07:08:50;;;;;;;9.05;3.92;;;;;;;5.16;55.49;101851.75;4904445;29;20059;-85
2023/12/19 07:11:21;;;;;;;6.88;4.05;;;;;;;5.18;55.46;101848.03;4910825;29;20046;-84
2023/12/19 07:13:52;;;;;;;6.63;3.92;;;;;;;5.19;55.17;101851.63;4926345;29;20433;-84
2023/12/19 07:16:22;;;;;;;6.00;3.97;;;;;;;5.19;55.68;101852.53;4914679;29;20043;-85
2023/12/19 07:18:53;;;;;;;5.65;3.60;;;;;;;5.21;55.90;101841.59;4926791;29;20111;-86
2023/12/19 07:21:22;;;;;;;6.15;3.85;;;;;;;5.19;55.55;101849.81;4913345;29;20050;-85
2023/12/19 07:23:50;;;;;;;5.20;3.47;;;;;;;5.19;55.70;101840.78;4920535;29;20058;-85
2023/12/19 07:26:23;;;;;;;5.93;3.72;;;;;;;5.22;56.15;101836.06;4912820;29;20097;-86
2023/12/19 07:28:52;;;;;;;5.22;3.60;;;;;;;5.18;55.86;101836.31;4924004;29;20134;-86
2023/12/19 07:31:26;;;;;;;6.00;3.55;;;;;;;5.24;56.30;101825.13;4929145;29;20032;-85
2023/12/19 07:33:56;;;;;;;6.55;4.10;;;;;;;5.23;55.73;101820.66;4920151;29;20051;-85
2023/12/19 07:36:27;;;;;;;5.63;3.80;;;;;;;5.25;56.12;101826.91;4914927;29;20178;-85
2023/12/19 07:38:55;;;;;;;5.50;3.25;;;;;;;5.23;55.73;101835.13;4912881;29;20055;-85
2023/12/19 07:41:26;;;;;;;6.05;3.80;;;;;;;5.25;55.85;101835.91;4924767;29;20557;-85
2023/12/19 07:43:55;;;;;;;5.95;3.80;;;;;;;5.25;55.95;101829.63;4915417;29;20458;-85
2023/12/19 07:46:24;;;;;;;5.70;3.60;;;;;;;5.26;56.13;101845.81;4921918;29;20043;-84
2023/12/19 07:48:53;;;;;;;6.55;3.85;;;;;;;5.28;55.90;101841.22;4925220;29;20139;-85
2023/12/19 07:51:23;;;;;;;6.13;3.53;;;;;;;5.29;55.86;101837.50;4916032;29;20058;-86
2023/12/19 07:53:54;;;;;;;6.28;4.18;;;;;;;5.31;55.81;101826.59;4927179;29;20096;-86
2023/12/19 07:56:22;;;;;;;5.53;3.67;;;;;;;5.30;55.80;101825.69;4923472;29;20044;-85
2023/12/19 07:58:50;;;;;;;5.63;3.55;;;;;;;5.30;55.86;101816.69;4909811;29;20048;-85
2023/12/19 08:01:19;;;;;;;5.60;3.50;;;;;;;5.34;55.54;101823.72;4925317;29;20040;-85
2023/12/19 08:04:00;;;;;;;5.72;3.47;;;;;;;5.37;55.98;101814.56;4912927;29;20040;-86
2023/12/19 08:06:41;;;;;;;5.18;3.40;;;;;;;5.30;55.82;101805.81;4920783;29;20044;-86
2023/12/19 08:09:13;;;;;;;4.97;3.25;;;;;;;5.34;56.12;101812.88;4929061;29;20047;-86
2023/12/19 08:11:41;;;;;;;7.18;3.55;;;;;;;5.35;55.99;101813.75;4918276;29;20039;-86
2023/12/19 08:14:09;;;;;;;5.18;3.63;;;;;;;5.35;55.94;101817.34;4923201;29;20048;-86
2023/12/19 08:16:37;;;;;;;5.35;3.50;;;;;;;5.38;56.09;101827.19;4926559;29;20762;-85
2023/12/19 08:19:07;;;;;;;5.28;3.53;;;;;;;5.40;55.95;101822.53;4909819;29;20067;-85
2023/12/19 08:21:35;;;;;;;6.78;3.75;;;;;;;5.39;55.98;101820.75;4925465;29;20047;-86
2023/12/19 08:24:04;;;;;;;5.15;3.30;;;;;;;5.38;55.98;101817.16;4927301;29;20103;-87
2023/12/19 08:26:32;;;;;;;5.50;3.38;;;;;;;5.43;55.93;101811.53;4913247;29;20040;-86
2023/12/19 08:29:00;;;;;;;4.95;3.03;;;;;;;5.42;56.00;101824.22;4915299;29;20039;-87
2023/12/19 08:31:28;;;;;;;5.95;3.25;;;;;;;5.43;55.90;101827.81;4942425;29;20028;-84
2023/12/19 08:33:56;;;;;;;5.43;2.90;;;;;;;5.44;56.06;101821.44;4930105;29;20047;-83
2023/12/19 08:36:26;;;;;;;5.82;3.75;;;;;;;5.46;55.88;101811.38;4930535;29;20144;-83
2023/12/19 08:39:02;;;;;;;5.82;3.17;;;;;;;5.45;55.94;101809.63;4933834;29;20048;-86
2023/12/19 08:41:30;;;;;;;6.07;3.45;;;;;;;5.43;55.85;101796.13;4930250;29;20036;-85
2023/12/19 08:43:58;;;;;;;5.85;3.25;;;;;;;5.45;55.81;101786.06;4917627;29;20095;-84
2023/12/19 08:46:26;;;;;;;5.97;3.40;;;;;;;5.45;56.07;101777.03;4931561;29;20656;-84
2023/12/19 08:48:54;;;;;;;5.20;3.20;;;;;;;5.45;56.04;101771.63;4927115;29;20514;-85
2023/12/19 08:51:22;;;;;;;6.35;3.70;;;;;;;5.45;56.19;101775.22;4933255;29;20031;-82
2023/12/19 08:53:52;;;;;;;5.43;3.38;;;;;;;5.48;56.01;101760.56;4920652;29;20111;-87
2023/12/19 08:56:23;;;;;;;6.03;3.17;;;;;;;5.48;55.61;101757.84;4921671;29;20087;-85
2023/12/19 08:58:51;;;;;;;6.07;3.35;;;;;;;5.45;56.08;101761.63;4923072;29;20043;-87
2023/12/19 09:01:20;;;;;;;4.50;3.28;;;;;;;5.48;55.98;101760.56;4924763;29;20040;-85
2023/12/19 09:03:48;;;;;;;6.53;3.40;;;;;;;5.49;55.95;101755.06;4922560;29;20047;-86
2023/12/19 09:06:16;;;;;;;5.88;3.22;;;;;;;5.49;55.77;101752.34;4925808;29;20050;-87
2023/12/19 09:08:44;;;;;;;5.35;3.50;;;;;;;5.50;56.15;101761.38;4927318;29;20044;-88
2023/12/19 09:11:14;;;;;;;5.70;3.42;;;;;;;5.51;55.84;101761.31;4923421;29;20035;-86
2023/12/19 09:13:42;;;;;;;6.22;3.40;;;;;;;5.52;56.17;101764.91;4921722;29;20047;-85
2023/12/19 09:16:11;;;;;;;6.18;3.45;;;;;;;5.52;56.20;101759.47;4924180;29;20058;-85
2023/12/19 09:18:41;;;;;;;5.50;3.13;;;;;;;5.51;56.17;101747.72;4924055;29;20808;-86
2023/12/19 09:21:11;;;;;;;5.00;2.92;;;;;;;5.51;55.91;101742.31;4921109;29;20047;-86
2023/12/19 09:23:40;;;;;;;5.65;3.25;;;;;;;5.53;55.84;101742.22;4921908;29;20040;-86
2023/12/19 09:26:09;;;;;;;4.85;3.08;;;;;;;5.53;55.80;101737.69;4927288;29;20058;-87
2023/12/19 09:28:38;;;;;;;3.92;2.53;;;;;;;5.52;55.79;101735.91;4930344;29;20055;-86
2023/12/19 09:31:08;;;;;;;5.47;2.92;;;;;;;5.54;55.98;101735.84;4943925;29;20077;-87
2023/12/19 09:33:38;;;;;;;4.57;2.80;;;;;;;5.54;56.10;101720.41;4945341;29;20577;-85
2023/12/19 09:36:08;;;;;;;4.38;2.60;;;;;;;5.55;56.30;101729.41;4933599;29;20062;-87
2023/12/19 09:38:37;;;;;;;4.57;2.70;;;;;;;5.57;56.35;101728.38;4909738;29;20131;-86
2023/12/19 09:41:06;;;;;;;5.13;2.90;;;;;;;5.59;56.14;101721.06;4920695;29;20513;-86
2023/12/19 09:43:34;;;;;;;4.88;2.90;;;;;;;5.61;56.12;101715.53;4909759;29;20044;-87
2023/12/19 09:46:04;;;;;;;6.18;2.88;;;;;;;5.63;56.37;101716.31;4913549;29;20387;-86
2023/12/19 09:48:34;;;;;;;6.93;3.00;;;;;;;5.62;56.13;101712.72;4908857;29;20098;-86
2023/12/19 09:51:18;;;;;;;4.95;3.10;;;;;;;5.64;56.51;101713.53;4912689;29;20115;-87
2023/12/19 09:53:49;;;;;;;4.50;2.63;;;;;;;5.64;56.50;101712.66;4918172;29;20063;-86
2023/12/19 09:56:18;;;;;;;4.00;2.38;;;;;;;5.66;56.15;101702.59;4926072;29;20450;-85
2023/12/19 09:58:48;;;;;;;3.97;2.63;;;;;;;5.66;56.56;101702.59;4917272;29;20043;-86
2023/12/19 10:01:18;;;;;;;3.95;2.45;;;;;;;5.69;56.51;101686.13;4926850;29;20036;-86
2023/12/19 10:03:49;;;;;;;4.85;2.47;;;;;;;5.71;56.45;101686.06;4926693;29;20119;-86
2023/12/19 10:06:18;;;;;;;5.25;2.80;;;;;;;5.70;56.22;101693.31;4924894;29;20044;-87
2023/12/19 10:08:48;;;;;;;4.55;2.83;;;;;;;5.74;56.51;101683.16;4932025;29;20050;-87
2023/12/19 10:11:17;;;;;;;4.75;2.40;;;;;;;5.71;56.44;101677.91;4922359;29;20040;-86
2023/12/19 10:13:47;;;;;;;4.50;2.85;;;;;;;5.75;56.33;101683.06;4918389;29;20047;-87
2023/12/19 10:16:18;;;;;;;4.13;2.67;;;;;;;5.75;56.29;101683.06;4925341;29;20072;-87
2023/12/19 10:19:01;;;;;;;4.55;2.63;;;;;;;5.76;56.36;101679.41;4921979;29;20055;-87
2023/12/19 10:21:32;;;;;;;4.75;2.85;;;;;;;5.78;56.29;101684.75;4915584;29;20052;-87
2023/12/19 10:24:09;;;;;;;4.22;2.33;;;;;;;5.81;56.90;101674.59;4937391;29;20028;-85
2023/12/19 10:26:38;;;;;;;3.65;2.40;;;;;;;5.80;56.23;101677.38;4934424;28;20620;-86
2023/12/19 10:29:07;;;;;;;4.32;2.70;;;;;;;5.81;56.42;101666.44;4930807;29;20035;-85
2023/12/19 10:31:37;;;;;;;4.70;2.70;;;;;;;5.83;56.33;101674.50;4941062;29;20646;-86
2023/12/19 10:34:06;;;;;;;4.25;2.58;;;;;;;5.80;56.80;101661.09;4918263;29;20092;-86
2023/12/19 10:36:35;;;;;;;5.68;2.90;;;;;;;5.84;56.79;101662.69;4924479;29;20039;-86
2023/12/19 10:39:05;;;;;;;4.60;3.05;;;;;;;5.80;56.70;101642.94;4926607;29;20051;-87
2023/12/19 10:41:37;;;;;;;5.00;2.83;;;;;;;5.84;56.71;101641.84;4922208;29;20060;-86
2023/12/19 10:44:07;;;;;;;5.28;2.97;;;;;;;5.81;56.43;101642.00;4911186;29;20092;-84
2023/12/19 10:46:39;;;;;;;5.63;2.75;;;;;;;5.84;56.91;101630.09;4916011;29;20673;-87
2023/12/19 10:49:07;;;;;;;4.82;3.00;;;;;;;5.82;56.75;101624.72;4925746;29;20050;-88
2023/12/19 10:51:37;;;;;;;4.47;2.58;;;;;;;5.83;56.25;101622.91;4926029;29;20067;-86
2023/12/19 10:54:09;;;;;;;5.85;3.03;;;;;;;5.83;56.92;101603.88;4921686;29;20066;-87
2023/12/19 10:57:02;;;;;;;5.05;2.70;;;;;;;5.85;57.11;101616.44;4911143;29;20080;-86
2023/12/19 10:59:32;;;;;;;;;;;;;;;5.59;57.94;101627.84;4927733;29;20063;-88
2023/12/19 11:02:05;;;;;;;3.78;2.35;;;;;;;5.83;57.07;101622.91;4922887;29;19928;-84
2023/12/19 11:04:41;;;;;;;5.30;2.45;;;;;;;5.85;56.75;101624.56;4910537;29;20051;-87
2023/12/19 11:07:25;;;;;;;5.88;2.97;;;;;;;5.83;56.78;101618.34;4928491;29;20039;-86
2023/12/19 11:10:05;;;;;;;4.82;2.50;;;;;;;5.86;56.66;101618.19;4927682;29;20466;-86
2023/12/19 11:12:34;;;;;;;5.40;2.65;;;;;;;5.86;56.59;101601.00;4919268;29;20044;-85
2023/12/19 11:15:04;;;;;;;4.65;3.00;;;;;;;5.85;56.78;101601.97;4912042;29;20073;-87
2023/12/19 11:17:40;;;;;;;4.82;2.97;;;;;;;5.87;56.81;101591.91;4924839;29;20067;-86
2023/12/19 11:20:17;;;;;;;5.25;2.90;;;;;;;5.83;56.70;101572.16;4928100;29;20040;-85
2023/12/19 11:22:56;;;;;;;5.25;2.88;;;;;;;5.84;56.61;101578.47;4915006;29;20051;-87
2023/12/19 11:25:32;;;;;;;5.80;3.03;;;;;;;5.81;57.07;101575.91;4915082;29;20406;-86
2023/12/19 11:28:03;;;;;;;7.10;4.30;;;;;;;5.79;56.59;101567.00;4915748;29;20405;-86
2023/12/19 11:30:33;;;;;;;6.60;3.88;;;;;;;5.77;56.50;101558.94;4912554;29;20044;-85
2023/12/19 11:33:03;;;;;;;7.05;3.80;;;;;;;5.78;56.44;101557.09;4922514;29;20047;-85
2023/12/19 11:35:32;;;;;;;5.97;3.65;;;;;;;5.75;56.39;101557.25;4919543;29;20058;-86
2023/12/19 11:38:21;;;;;;;5.70;3.45;;;;;;;5.76;57.34;101559.91;4910358;29;20458;-85
2023/12/19 11:40:50;;;;;;;5.97;3.42;;;;;;;5.69;56.82;101558.50;4924145;29;20060;-86
2023/12/19 11:43:55;;;;;;;5.28;3.25;;;;;;;5.72;57.27;101552.88;4917314;29;20517;-86